TimeEST,TemperatureF,Dew PointF,Humidity,Sea Level PressureIn,VisibilityMPH,Wind Direction,Wind SpeedMPH,Gust SpeedMPH,PrecipitationIn,Events,Conditions,WindDirDegrees,DateUTC
12:53 AM,35.6,26.6,70,30.23,7.0,NNE,5.8,-,N/A,Snow,Light Snow,20,2013-01-16 05:53:00
1:34 AM,33.8,26.6,75,30.22,2.5,North,6.9,-,0.00,Snow,Light Snow,10,2013-01-16 06:34:00
1:49 AM,33.8,28.4,81,30.21,1.5,NNE,5.8,-,0.00,Snow,Light Snow,20,2013-01-16 06:49:00
1:53 AM,34.0,28.0,79,30.21,1.5,NNE,5.8,-,0.01,Snow,Light Snow,30,2013-01-16 06:53:00
2:01 AM,33.8,28.4,81,30.20,3.0,NNE,6.9,-,0.00,Snow,Light Snow,30,2013-01-16 07:01:00
2:11 AM,33.8,28.4,81,30.20,5.0,NNE,6.9,-,0.01,Rain,Light Rain,20,2013-01-16 07:11:00
2:53 AM,33.8,28.4,81,30.18,6.0,North,8.1,-,N/A,Rain,Light Freezing Rain,10,2013-01-16 07:53:00
3:04 AM,33.8,28.4,81,30.18,6.0,North,8.1,-,0.00,Snow,Light Snow,10,2013-01-16 08:04:00
3:18 AM,33.8,28.4,81,30.18,2.0,North,8.1,-,0.01,Snow,Light Snow,360,2013-01-16 08:18:00
3:26 AM,33.8,28.4,81,30.18,1.8,North,8.1,-,0.02,Snow,Light Snow,10,2013-01-16 08:26:00
3:53 AM,33.1,30.0,89,30.15,1.2,North,9.2,-,0.04,Snow,Light Snow,10,2013-01-16 08:53:00
4:53 AM,32.0,28.9,88,30.11,0.8,North,9.2,-,0.10,Snow,Light Snow,10,2013-01-16 09:53:00
5:00 AM,33.8,28.4,81,30.11,1.2,North,8.1,-,0.02,Snow,Light Snow,10,2013-01-16 10:00:00
5:53 AM,33.1,30.9,92,30.10,1.0,Calm,Calm,-,0.13,Snow,Light Snow,0,2013-01-16 10:53:00
6:03 AM,33.8,30.2,87,30.09,2.0,NE,3.5,-,0.03,Snow,Light Snow,40,2013-01-16 11:03:00
6:13 AM,33.8,30.2,87,30.08,3.0,Calm,Calm,-,0.04,Rain,Rain,0,2013-01-16 11:13:00
6:20 AM,33.8,30.2,87,30.08,4.0,Calm,Calm,-,0.05,Rain,Light Freezing Rain,0,2013-01-16 11:20:00
6:31 AM,33.8,30.2,87,30.08,4.0,North,3.5,-,0.06,Rain,Light Freezing Rain,10,2013-01-16 11:31:00
6:39 AM,33.8,30.2,87,30.07,4.0,North,3.5,-,0.06,Rain,Light Freezing Rain,350,2013-01-16 11:39:00
6:49 AM,33.8,30.2,87,30.07,4.0,North,4.6,-,0.07,Rain,Light Freezing Rain,350,2013-01-16 11:49:00
6:53 AM,33.1,30.9,92,30.07,5.0,North,5.8,-,0.07,Rain,Light Freezing Rain,350,2013-01-16 11:53:00
7:53 AM,34.0,30.9,89,30.07,5.0,NNE,6.9,-,0.01,Rain,Light Freezing Rain,20,2013-01-16 12:53:00
8:36 AM,33.8,30.2,87,30.05,4.0,North,9.2,-,0.01,Rain,Light Freezing Rain,10,2013-01-16 13:36:00
8:43 AM,33.8,30.2,87,30.04,4.0,NNE,9.2,-,0.01,Rain,Light Freezing Rain,20,2013-01-16 13:43:00
8:53 AM,34.0,30.0,85,30.04,4.0,North,9.2,-,0.01,Rain,Light Freezing Rain,10,2013-01-16 13:53:00
9:03 AM,33.8,30.2,87,30.02,4.0,NE,6.9,-,0.00,,Overcast,40,2013-01-16 14:03:00
9:18 AM,33.8,30.2,87,29.98,5.0,NE,4.6,-,0.00,,Overcast,40,2013-01-16 14:18:00
9:53 AM,34.0,30.9,89,29.96,5.0,North,8.1,-,0.00,,Overcast,10,2013-01-16 14:53:00
10:26 AM,33.8,30.2,87,29.94,5.0,North,6.9,-,N/A,,Overcast,360,2013-01-16 15:26:00
10:53 AM,34.0,32.0,92,29.96,4.0,NNW,5.8,-,N/A,,Overcast,340,2013-01-16 15:53:00
11:53 AM,34.0,30.9,89,29.94,4.0,North,6.9,-,0.00,,Overcast,360,2013-01-16 16:53:00
12:53 PM,35.1,32.0,89,29.90,4.0,NNE,6.9,-,0.03,Rain,Light Rain,20,2013-01-16 17:53:00
1:53 PM,34.0,32.0,92,29.79,8.0,ENE,3.5,-,0.00,,Overcast,70,2013-01-16 18:53:00
2:53 PM,35.1,32.0,89,29.90,8.0,NNW,8.1,17.3,N/A,,Overcast,330,2013-01-16 19:53:00
3:53 PM,35.1,33.1,92,29.87,6.0,NNW,3.5,-,N/A,,Overcast,340,2013-01-16 20:53:00
4:53 PM,35.1,32.0,89,29.88,9.0,North,4.6,-,N/A,,Overcast,360,2013-01-16 21:53:00
5:53 PM,35.1,33.1,92,29.88,4.0,Calm,Calm,-,N/A,,Overcast,0,2013-01-16 22:53:00
6:53 PM,37.0,33.1,86,29.88,8.0,SW,3.5,-,N/A,,Overcast,230,2013-01-16 23:53:00
7:53 PM,37.0,33.1,86,29.88,10.0,West,4.6,-,N/A,,Overcast,260,2013-01-17 00:53:00
8:53 PM,37.0,33.1,86,29.89,10.0,WSW,6.9,-,N/A,,Mostly Cloudy,240,2013-01-17 01:53:00
9:53 PM,37.0,32.0,82,29.90,10.0,WSW,8.1,-,N/A,,Overcast,250,2013-01-17 02:53:00
10:53 PM,37.0,32.0,82,29.88,10.0,WSW,4.6,-,N/A,,Mostly Cloudy,250,2013-01-17 03:53:00
11:01 PM,37.4,32.0,81,29.88,10.0,WSW,5.8,-,N/A,,Scattered Clouds,240,2013-01-17 04:01:00
11:53 PM,37.0,32.0,82,29.89,9.0,SW,5.8,-,N/A,,Partly Cloudy,230,2013-01-17 04:53:00